createdAt,value
2023-01-23T00:00:40.218Z,80.76
2023-01-23T00:01:35.141Z,80.56
2023-01-23T00:02:26.910Z,80.73
2023-01-23T00:03:19.008Z,80.60
2023-01-23T00:04:13.790Z,80.66
2023-01-23T00:05:06.129Z,80.80
2023-01-23T00:06:00.078Z,80.72
2023-01-23T00:06:52.259Z,80.64
2023-01-23T00:07:43.697Z,80.66
2023-01-23T00:08:35.983Z,80.96
2023-01-23T00:09:27.506Z,80.78
2023-01-23T00:10:19.476Z,80.93
2023-01-23T00:11:15.195Z,81.05
2023-01-23T00:12:06.938Z,81.12
2023-01-23T00:12:58.618Z,80.99
2023-01-23T00:13:50.837Z,80.79
2023-01-23T00:14:42.550Z,80.65
2023-01-23T00:15:34.528Z,80.54
2023-01-23T00:16:28.664Z,80.58
2023-01-23T00:17:20.173Z,80.44
2023-01-23T00:18:11.621Z,80.51
2023-01-23T00:19:03.124Z,80.77
2023-01-23T00:19:55.187Z,80.90
2023-01-23T00:20:46.711Z,80.95
2023-01-23T00:21:38.465Z,81.01
2023-01-23T00:22:30.425Z,80.78
2023-01-23T00:23:21.895Z,81.20
2023-01-23T00:24:13.484Z,81.17
2023-01-23T00:25:06.807Z,81.07
2023-01-23T00:26:06.320Z,81.17
2023-01-23T00:26:57.805Z,81.01
2023-01-23T00:27:49.361Z,81.22
2023-01-23T00:28:42.594Z,80.88
2023-01-23T00:29:34.090Z,81.08
2023-01-23T00:30:25.763Z,80.85
2023-01-23T00:31:21.106Z,81.24
2023-01-23T00:32:14.140Z,80.94
2023-01-23T00:33:05.684Z,81.07
2023-01-23T00:34:01.655Z,81.00
2023-01-23T00:34:53.328Z,81.04
2023-01-23T00:35:44.952Z,80.66
2023-01-23T00:36:38.848Z,81.00
2023-01-23T00:37:30.274Z,81.20
2023-01-23T00:38:21.813Z,81.03
2023-01-23T00:39:20.154Z,81.19
2023-01-23T00:40:13.231Z,81.16
2023-01-23T00:41:04.841Z,81.34
2023-01-23T00:41:57.198Z,81.23
2023-01-23T00:42:48.869Z,81.17
2023-01-23T00:43:42.239Z,81.22
2023-01-23T00:44:35.390Z,81.24
2023-01-23T00:45:27.073Z,81.26
2023-01-23T00:46:22.829Z,81.22
2023-01-23T00:47:14.366Z,81.25
2023-01-23T00:48:06.089Z,81.15
2023-01-23T00:48:57.877Z,81.15
2023-01-23T00:49:50.161Z,81.16
2023-01-23T00:50:41.704Z,81.19
2023-01-23T00:51:34.539Z,81.16
2023-01-23T00:52:27.596Z,81.30
2023-01-23T00:53:19.914Z,81.20
2023-01-23T00:54:11.660Z,81.34
2023-01-23T00:55:04.133Z,81.27
2023-01-23T00:55:55.702Z,81.44
2023-01-23T00:56:48.252Z,81.54
2023-01-23T00:57:39.975Z,81.37
2023-01-23T00:58:32.624Z,81.35
2023-01-23T00:59:24.624Z,81.29
2023-01-23T01:00:17.345Z,81.32
2023-01-23T01:01:09.723Z,81.37
2023-01-23T01:02:01.478Z,81.56
2023-01-23T01:02:53.057Z,81.35
2023-01-23T01:03:45.243Z,81.25
2023-01-23T01:04:37.177Z,81.50
2023-01-23T01:05:28.601Z,81.20
2023-01-23T01:06:20.297Z,81.14
2023-01-23T01:07:12.494Z,81.25
2023-01-23T01:08:05.405Z,81.39
2023-01-23T01:08:58.177Z,81.51
2023-01-23T01:09:51.427Z,81.21
2023-01-23T01:10:43.157Z,81.35
2023-01-23T01:11:34.613Z,81.36
2023-01-23T01:12:26.733Z,81.59
2023-01-23T01:13:21.198Z,81.27
2023-01-23T01:14:12.725Z,81.06
2023-01-23T01:15:05.727Z,81.42
2023-01-23T01:15:57.270Z,81.52
2023-01-23T01:16:48.924Z,81.64
2023-01-23T01:17:40.419Z,81.58
2023-01-23T01:18:32.717Z,81.16
2023-01-23T01:19:24.235Z,81.29
2023-01-23T01:20:21.500Z,81.54
2023-01-23T01:21:15.279Z,81.19
2023-01-23T01:22:06.962Z,81.46
2023-01-23T01:23:00.442Z,81.38
2023-01-23T01:23:51.944Z,81.58
2023-01-23T01:24:43.434Z,81.17
2023-01-23T01:25:35.449Z,81.08
2023-01-23T01:26:26.979Z,81.38
2023-01-23T01:27:18.692Z,81.21
2023-01-23T01:28:10.451Z,80.88
2023-01-23T01:29:02.404Z,80.67
2023-01-23T01:29:53.910Z,80.31
2023-01-23T01:30:45.549Z,80.55
2023-01-23T01:31:37.149Z,80.30
2023-01-23T01:32:28.654Z,80.30
2023-01-23T01:33:20.140Z,80.50
2023-01-23T01:34:13.858Z,80.43
2023-01-23T01:35:07.252Z,80.58
2023-01-23T01:35:58.926Z,80.43
2023-01-23T01:36:51.726Z,80.40
2023-01-23T01:37:43.835Z,80.54
2023-01-23T01:38:35.617Z,80.31
2023-01-23T01:39:27.162Z,80.36
2023-01-23T01:40:24.990Z,80.36
2023-01-23T01:41:17.430Z,80.08
2023-01-23T01:42:08.965Z,80.32
2023-01-23T01:43:04.847Z,80.35
2023-01-23T01:43:57.322Z,80.37
2023-01-23T01:45:01.437Z,80.68
2023-01-23T01:46:24.987Z,80.89
2023-01-23T01:47:16.449Z,80.81
2023-01-23T01:48:08.191Z,80.73
2023-01-23T01:49:07.465Z,80.54
2023-01-23T01:50:04.865Z,80.28
2023-01-23T01:50:59.353Z,80.15
2023-01-23T01:51:55.936Z,80.29
2023-01-23T01:52:48.336Z,80.33
2023-01-23T01:53:40.722Z,80.14
2023-01-23T01:54:32.342Z,80.50
2023-01-23T01:55:23.883Z,80.53
2023-01-23T01:56:18.567Z,80.76
2023-01-23T01:57:20.119Z,80.69
2023-01-23T01:58:13.931Z,80.69
2023-01-23T01:59:07.818Z,80.94
2023-01-23T02:00:18.134Z,80.65
2023-01-23T02:01:10.506Z,80.73
2023-01-23T02:02:14.513Z,80.82
2023-01-23T02:03:06.766Z,80.75
2023-01-23T02:04:00.356Z,80.88
2023-01-23T02:05:01.458Z,80.80
2023-01-23T02:05:53.361Z,80.95
2023-01-23T02:06:45.756Z,80.93
2023-01-23T02:07:46.933Z,81.16
2023-01-23T02:09:07.407Z,81.08
2023-01-23T02:10:03.905Z,81.15
2023-01-23T02:10:56.709Z,81.11
2023-01-23T02:11:49.904Z,80.93
2023-01-23T02:12:48.372Z,80.87
2023-01-23T02:13:42.825Z,80.90
2023-01-23T02:14:34.941Z,80.97
2023-01-23T02:15:27.499Z,80.79
2023-01-23T02:16:22.140Z,81.18
2023-01-23T02:17:13.821Z,81.04
2023-01-23T02:18:05.459Z,81.01
2023-01-23T02:19:07.235Z,80.91
2023-01-23T02:20:05.644Z,80.70
2023-01-23T02:21:03.589Z,80.69
2023-01-23T02:22:19.866Z,80.69
2023-01-23T02:24:10.001Z,80.82
2023-01-23T02:25:23.569Z,80.75
2023-01-23T02:26:25.080Z,81.10
2023-01-23T02:27:17.009Z,80.95
2023-01-23T02:28:10.702Z,80.70
2023-01-23T02:29:05.226Z,80.96
2023-01-23T02:30:06.049Z,80.79
2023-01-23T02:30:57.802Z,80.51
2023-01-23T02:31:52.794Z,80.82
2023-01-23T02:32:45.643Z,80.59
2023-01-23T02:33:37.229Z,80.79
2023-01-23T02:34:29.794Z,81.14
2023-01-23T02:35:30.472Z,80.92
2023-01-23T02:36:32.244Z,80.96
2023-01-23T02:37:31.824Z,80.84
2023-01-23T02:38:29.114Z,80.96
2023-01-23T02:39:21.488Z,81.03
2023-01-23T02:40:17.107Z,80.83
2023-01-23T02:41:13.735Z,80.93
2023-01-23T02:42:06.719Z,80.99
2023-01-23T02:43:21.323Z,81.30
2023-01-23T02:44:38.577Z,80.98
2023-01-23T02:45:31.829Z,80.84
2023-01-23T02:46:24.936Z,80.94
2023-01-23T02:47:16.414Z,81.19
2023-01-23T02:48:08.773Z,81.25
2023-01-23T02:49:02.473Z,81.06
2023-01-23T02:49:54.152Z,81.20
2023-01-23T02:50:46.572Z,81.06
2023-01-23T02:51:38.383Z,81.12
2023-01-23T02:52:31.857Z,81.10
2023-01-23T02:53:23.437Z,81.17
2023-01-23T02:54:17.431Z,81.15
2023-01-23T02:55:09.090Z,81.40
2023-01-23T02:56:00.928Z,80.84
2023-01-23T02:56:52.695Z,80.93
2023-01-23T02:57:47.244Z,81.06
2023-01-23T02:58:56.969Z,81.14
2023-01-23T03:00:07.411Z,80.97
2023-01-23T03:01:00.521Z,80.97
2023-01-23T03:01:53.375Z,81.21
2023-01-23T03:02:47.625Z,81.07
2023-01-23T03:03:42.164Z,81.16
2023-01-23T03:04:33.767Z,81.06
2023-01-23T03:05:25.506Z,81.49
2023-01-23T03:06:18.072Z,81.31
2023-01-23T03:07:13.851Z,81.38
2023-01-23T03:08:05.968Z,81.37
2023-01-23T03:08:59.768Z,81.59
2023-01-23T03:09:51.799Z,81.53
2023-01-23T03:10:43.297Z,81.47
2023-01-23T03:11:35.859Z,81.77
2023-01-23T03:12:28.941Z,81.75
2023-01-23T03:13:20.915Z,82.05
2023-01-23T03:14:16.315Z,82.34
2023-01-23T03:15:09.889Z,82.31
2023-01-23T03:16:01.504Z,82.29
2023-01-23T03:16:55.124Z,82.25
2023-01-23T03:17:49.717Z,82.26
2023-01-23T03:18:53.495Z,82.06
2023-01-23T03:19:45.949Z,82.30
2023-01-23T03:20:39.978Z,82.15
2023-01-23T03:21:33.201Z,82.11
2023-01-23T03:22:24.906Z,82.09
2023-01-23T03:23:16.923Z,82.24
2023-01-23T03:24:11.530Z,82.30
2023-01-23T03:25:03.091Z,82.10
2023-01-23T03:25:58.429Z,82.28
2023-01-23T03:26:53.702Z,82.41
2023-01-23T03:27:49.313Z,82.35
2023-01-23T03:28:59.390Z,82.42
2023-01-23T03:30:09.639Z,82.30
2023-01-23T03:31:01.602Z,82.66
2023-01-23T03:31:54.075Z,82.59
2023-01-23T03:32:46.742Z,82.83
2023-01-23T03:33:39.247Z,82.89
2023-01-23T03:34:32.117Z,83.08
2023-01-23T03:35:23.871Z,83.28
2023-01-23T03:36:18.205Z,83.31
2023-01-23T03:37:12.237Z,83.48
2023-01-23T03:38:04.931Z,83.53
2023-01-23T03:39:14.846Z,83.74
2023-01-23T03:40:25.816Z,84.25
2023-01-23T03:41:27.358Z,84.30
2023-01-23T03:42:23.956Z,84.54
2023-01-23T03:43:17.602Z,84.89
2023-01-23T03:44:13.266Z,84.77
2023-01-23T03:45:06.685Z,84.85
2023-01-23T03:46:00.439Z,84.96
2023-01-23T03:46:53.563Z,84.96
2023-01-23T03:47:45.080Z,85.08
2023-01-23T03:48:36.856Z,84.88
2023-01-23T03:49:29.425Z,85.11
2023-01-23T03:50:23.506Z,85.05
2023-01-23T03:51:15.192Z,85.00
2023-01-23T03:52:06.763Z,84.97
2023-01-23T03:52:58.379Z,84.63
2023-01-23T03:53:50.573Z,84.78
2023-01-23T03:54:42.254Z,84.57
2023-01-23T03:55:34.323Z,84.56
2023-01-23T03:56:25.954Z,84.04
2023-01-23T03:57:17.828Z,84.31
2023-01-23T03:58:11.971Z,84.37
2023-01-23T03:59:06.261Z,84.32
2023-01-23T03:59:58.517Z,84.43
2023-01-23T04:00:55.246Z,84.54
2023-01-23T04:01:47.893Z,84.49
2023-01-23T04:02:39.543Z,84.24
2023-01-23T04:03:31.357Z,84.30
2023-01-23T04:04:23.027Z,84.15
2023-01-23T04:05:15.013Z,84.26
2023-01-23T04:06:06.521Z,84.29
2023-01-23T04:06:57.975Z,84.36
2023-01-23T04:07:53.404Z,84.19
2023-01-23T04:08:45.013Z,84.36
2023-01-23T04:09:37.036Z,84.40
2023-01-23T04:10:29.188Z,84.39
2023-01-23T04:11:28.152Z,84.38
2023-01-23T04:12:20.613Z,84.42
2023-01-23T04:13:13.539Z,84.33
2023-01-23T04:14:05.571Z,84.48
2023-01-23T04:14:57.473Z,84.59
2023-01-23T04:15:49.127Z,84.74
2023-01-23T04:16:41.159Z,84.75
2023-01-23T04:17:33.538Z,84.96
2023-01-23T04:18:25.365Z,84.87
2023-01-23T04:19:20.961Z,85.18
2023-01-23T04:20:13.409Z,84.94
2023-01-23T04:21:06.944Z,85.13
2023-01-23T04:21:58.948Z,85.23
2023-01-23T04:22:50.563Z,85.14
2023-01-23T04:23:44.159Z,85.16
2023-01-23T04:24:35.808Z,85.12
2023-01-23T04:25:28.501Z,85.54
2023-01-23T04:26:20.125Z,85.63
2023-01-23T04:27:11.717Z,85.80
2023-01-23T04:28:03.294Z,86.25
2023-01-23T04:28:55.301Z,86.22
2023-01-23T04:29:49.997Z,86.27
2023-01-23T04:30:43.325Z,86.10
2023-01-23T04:31:47.049Z,86.36
2023-01-23T04:32:38.791Z,86.47
2023-01-23T04:33:30.453Z,86.33
2023-01-23T04:34:23.086Z,86.55
2023-01-23T04:35:17.122Z,86.66
2023-01-23T04:36:10.368Z,86.67
2023-01-23T04:37:01.856Z,86.69
2023-01-23T04:37:54.517Z,86.86
2023-01-23T04:38:46.895Z,86.60
2023-01-23T04:39:44.876Z,86.67
2023-01-23T04:40:36.702Z,86.56
2023-01-23T04:41:31.428Z,86.63
2023-01-23T04:42:27.388Z,86.69
2023-01-23T04:43:31.979Z,86.98
2023-01-23T04:44:24.951Z,86.89
2023-01-23T04:45:55.896Z,86.95
2023-01-23T04:47:04.231Z,86.78
2023-01-23T04:47:55.808Z,86.68
2023-01-23T04:48:48.907Z,86.74
2023-01-23T04:49:40.831Z,86.87
2023-01-23T04:50:33.646Z,86.64
2023-01-23T04:51:25.635Z,86.87
2023-01-23T04:52:17.149Z,86.93
2023-01-23T04:53:17.726Z,86.89
2023-01-23T04:54:10.623Z,86.68
2023-01-23T04:55:02.784Z,86.78
2023-01-23T04:55:54.576Z,86.62
2023-01-23T04:56:47.304Z,86.65
2023-01-23T04:57:40.862Z,86.62
2023-01-23T04:58:39.796Z,86.50
2023-01-23T04:59:33.292Z,86.51
2023-01-23T05:00:24.951Z,86.62
2023-01-23T05:01:23.745Z,86.77
2023-01-23T05:02:21.311Z,86.92
2023-01-23T05:03:14.231Z,86.64
2023-01-23T05:04:09.981Z,86.84
2023-01-23T05:05:02.465Z,86.82
2023-01-23T05:05:54.146Z,86.93
2023-01-23T05:06:46.467Z,87.14
2023-01-23T05:07:39.036Z,87.03
2023-01-23T05:08:33.771Z,87.00
2023-01-23T05:09:35.945Z,87.03
2023-01-23T05:10:27.697Z,86.92
2023-01-23T05:11:21.705Z,86.67
2023-01-23T05:12:13.602Z,86.51
2023-01-23T05:13:06.128Z,86.76
2023-01-23T05:13:57.880Z,86.85
2023-01-23T05:14:49.609Z,86.87
2023-01-23T05:15:42.667Z,86.85
2023-01-23T05:16:34.424Z,86.84
2023-01-23T05:17:52.001Z,86.94
2023-01-23T05:18:44.351Z,87.05
2023-01-23T05:19:36.191Z,87.19
2023-01-23T05:20:29.965Z,87.21
2023-01-23T05:21:25.682Z,87.14
2023-01-23T05:22:17.928Z,86.89
2023-01-23T05:23:09.696Z,86.95
2023-01-23T05:24:10.596Z,87.20
2023-01-23T05:25:02.882Z,87.15
2023-01-23T05:25:55.664Z,87.34
2023-01-23T05:26:48.632Z,87.26
2023-01-23T05:27:40.971Z,87.38
2023-01-23T05:28:32.775Z,87.49
2023-01-23T05:29:24.287Z,87.35
2023-01-23T05:30:25.143Z,87.42
2023-01-23T05:31:23.659Z,87.29
2023-01-23T05:32:35.151Z,87.29
2023-01-23T05:33:32.808Z,87.19
2023-01-23T05:34:24.330Z,87.29
2023-01-23T05:35:16.284Z,87.39
2023-01-23T05:36:08.842Z,87.33
2023-01-23T05:37:01.565Z,87.30
2023-01-23T05:37:54.559Z,87.31
2023-01-23T05:38:48.886Z,87.34
2023-01-23T05:39:40.756Z,87.53
2023-01-23T05:40:38.301Z,87.41
2023-01-23T05:41:38.666Z,87.68
2023-01-23T05:42:49.466Z,87.56
2023-01-23T05:44:07.190Z,87.46
2023-01-23T05:45:21.551Z,87.59
2023-01-23T05:46:14.237Z,87.67
2023-01-23T05:47:15.712Z,87.71
2023-01-23T05:48:08.485Z,87.68
2023-01-23T05:49:00.264Z,87.61
2023-01-23T05:49:51.865Z,87.71
2023-01-23T05:50:43.377Z,87.73
2023-01-23T05:51:36.067Z,87.73
2023-01-23T05:52:29.474Z,87.54
2023-01-23T05:53:21.007Z,87.74
2023-01-23T05:54:12.890Z,87.75
2023-01-23T05:55:08.749Z,87.45
2023-01-23T05:56:07.983Z,87.54
2023-01-23T05:57:07.089Z,87.70
2023-01-23T05:58:17.457Z,87.46
2023-01-23T05:59:16.063Z,87.63
2023-01-23T06:00:14.936Z,87.59
2023-01-23T06:01:06.786Z,87.69
2023-01-23T06:02:27.812Z,87.51
2023-01-23T06:03:55.339Z,87.50
2023-01-23T06:05:08.406Z,87.87
2023-01-23T06:06:23.016Z,87.65
2023-01-23T06:07:16.875Z,87.88
2023-01-23T06:08:08.498Z,87.75
2023-01-23T06:09:00.455Z,87.73
2023-01-23T06:09:52.163Z,87.77
2023-01-23T06:10:43.732Z,87.65
2023-01-23T06:11:35.698Z,87.71
2023-01-23T06:12:27.233Z,87.96
2023-01-23T06:13:19.643Z,87.83
2023-01-23T06:14:11.620Z,87.88
2023-01-23T06:15:04.123Z,88.17
2023-01-23T06:15:56.626Z,87.73
2023-01-23T06:16:49.604Z,88.26
2023-01-23T06:17:41.985Z,88.06
2023-01-23T06:18:33.569Z,88.24
2023-01-23T06:19:25.293Z,88.15
2023-01-23T06:20:17.023Z,88.20
2023-01-23T06:21:10.982Z,88.22
2023-01-23T06:22:04.161Z,88.25
2023-01-23T06:23:03.010Z,88.31
2023-01-23T06:23:54.558Z,88.21
2023-01-23T06:24:46.231Z,88.13
2023-01-23T06:25:38.406Z,88.03
2023-01-23T06:26:32.835Z,87.95
2023-01-23T06:27:24.443Z,87.76
2023-01-23T06:28:16.739Z,87.93
2023-01-23T06:29:09.338Z,87.94
2023-01-23T06:30:00.849Z,87.96
2023-01-23T06:30:52.490Z,87.84
2023-01-23T06:31:51.753Z,88.19
2023-01-23T06:32:45.287Z,88.21
2023-01-23T06:33:40.759Z,87.98
2023-01-23T06:34:36.737Z,87.86
2023-01-23T06:35:29.931Z,88.02
2023-01-23T06:36:21.466Z,88.22
2023-01-23T06:37:13.697Z,88.10
2023-01-23T06:38:08.361Z,88.04
2023-01-23T06:39:00.875Z,88.03
2023-01-23T06:39:58.775Z,88.10
2023-01-23T06:40:50.468Z,87.94
2023-01-23T06:41:52.849Z,87.99
2023-01-23T06:42:50.992Z,87.96
2023-01-23T06:43:42.819Z,88.15
2023-01-23T06:44:40.579Z,88.08
2023-01-23T06:45:32.307Z,88.03
2023-01-23T06:46:24.303Z,88.19
2023-01-23T06:47:19.370Z,88.32
2023-01-23T06:48:18.572Z,88.17
2023-01-23T06:49:10.577Z,88.14
2023-01-23T06:50:03.547Z,88.30
2023-01-23T06:51:01.471Z,88.38
2023-01-23T06:51:53.276Z,88.29
2023-01-23T06:52:48.542Z,88.50
2023-01-23T06:53:40.234Z,88.43
2023-01-23T06:54:32.350Z,88.44
2023-01-23T06:55:26.958Z,88.55
2023-01-23T06:56:18.769Z,88.25
2023-01-23T06:57:12.910Z,88.36
2023-01-23T06:58:04.534Z,88.40
2023-01-23T06:58:56.374Z,88.42
2023-01-23T06:59:53.101Z,88.28
2023-01-23T07:00:46.053Z,88.08
2023-01-23T07:01:56.598Z,88.23
2023-01-23T07:02:52.993Z,88.17
2023-01-23T07:03:45.109Z,88.09
2023-01-23T07:04:36.599Z,88.34
2023-01-23T07:05:28.552Z,88.26
2023-01-23T07:06:20.128Z,88.52
2023-01-23T07:07:12.500Z,88.41
2023-01-23T07:08:06.037Z,88.47
2023-01-23T07:08:57.640Z,88.50
2023-01-23T07:09:49.697Z,88.55
2023-01-23T07:10:44.700Z,88.41
2023-01-23T07:11:37.280Z,88.31
2023-01-23T07:12:30.616Z,88.47
2023-01-23T07:13:22.526Z,88.27
2023-01-23T07:14:15.393Z,88.35
2023-01-23T07:15:09.478Z,88.18
2023-01-23T07:16:05.578Z,87.79
2023-01-23T07:16:57.280Z,87.94
2023-01-23T07:17:49.913Z,87.81
2023-01-23T07:18:41.422Z,87.87
2023-01-23T07:19:34.562Z,87.77
2023-01-23T07:20:29.436Z,87.69
2023-01-23T07:21:23.117Z,87.74
2023-01-23T07:22:18.541Z,87.48
2023-01-23T07:23:10.336Z,87.46
2023-01-23T07:24:01.843Z,87.46
2023-01-23T07:24:53.553Z,86.99
2023-01-23T07:25:45.045Z,86.82
2023-01-23T07:26:36.677Z,86.96
2023-01-23T07:27:28.423Z,86.62
2023-01-23T07:28:19.878Z,86.07
2023-01-23T07:29:11.651Z,86.28
2023-01-23T07:30:06.004Z,86.45
2023-01-23T07:30:59.683Z,86.05
2023-01-23T07:31:51.394Z,86.17
2023-01-23T07:32:43.483Z,86.05
2023-01-23T07:33:35.017Z,85.80
2023-01-23T07:34:26.966Z,85.33
2023-01-23T07:35:18.547Z,85.39
2023-01-23T07:36:10.468Z,85.04
2023-01-23T07:37:02.431Z,85.05
2023-01-23T07:37:54.069Z,84.97
2023-01-23T07:38:45.585Z,84.86
2023-01-23T07:39:37.192Z,85.05
2023-01-23T07:40:29.160Z,84.71
2023-01-23T07:41:20.791Z,85.08
2023-01-23T07:42:12.284Z,85.03
2023-01-23T07:43:06.473Z,84.78
2023-01-23T07:43:57.979Z,84.89
2023-01-23T07:44:49.432Z,84.86
2023-01-23T07:45:41.033Z,85.28
2023-01-23T07:46:32.857Z,85.11
2023-01-23T07:47:24.683Z,84.63
2023-01-23T07:48:16.724Z,84.76
2023-01-23T07:49:08.190Z,84.54
2023-01-23T07:49:59.843Z,84.70
2023-01-23T07:50:51.451Z,84.86
2023-01-23T07:51:42.953Z,84.78
2023-01-23T07:52:34.668Z,84.90
2023-01-23T07:53:26.116Z,84.78
2023-01-23T07:54:17.819Z,84.96
2023-01-23T07:55:09.823Z,84.95
2023-01-23T07:56:05.143Z,84.71
2023-01-23T07:56:56.660Z,84.97
2023-01-23T07:57:48.331Z,85.07
2023-01-23T07:58:39.974Z,84.85
2023-01-23T07:59:31.444Z,84.83
2023-01-23T08:00:25.244Z,84.82
2023-01-23T08:01:19.198Z,84.99
2023-01-23T08:02:11.273Z,84.87
2023-01-23T08:03:03.138Z,84.63
2023-01-23T08:03:54.884Z,84.69
2023-01-23T08:04:46.345Z,84.93
2023-01-23T08:05:38.272Z,85.16
2023-01-23T08:06:29.762Z,84.57
2023-01-23T08:07:21.658Z,84.67
2023-01-23T08:08:14.121Z,83.93
2023-01-23T08:09:05.809Z,84.04
2023-01-23T08:09:57.613Z,84.23
2023-01-23T08:10:49.242Z,84.36
2023-01-23T08:11:41.042Z,84.35
2023-01-23T08:12:32.779Z,84.31
2023-01-23T08:13:24.302Z,84.10
2023-01-23T08:14:15.885Z,84.27
2023-01-23T08:15:08.622Z,84.19
2023-01-23T08:16:00.257Z,84.24
2023-01-23T08:16:53.282Z,84.15
2023-01-23T08:17:45.458Z,84.39
2023-01-23T08:18:37.026Z,84.03
2023-01-23T08:19:28.618Z,84.23
2023-01-23T08:20:20.439Z,84.34
2023-01-23T08:21:12.497Z,83.70
2023-01-23T08:22:04.984Z,83.63
2023-01-23T08:22:58.987Z,83.40
2023-01-23T08:23:51.077Z,83.35
2023-01-23T08:24:42.609Z,83.50
2023-01-23T08:25:35.018Z,83.37
2023-01-23T08:26:26.520Z,83.03
2023-01-23T08:27:18.026Z,83.16
2023-01-23T08:28:09.484Z,83.07
2023-01-23T08:29:01.252Z,83.38
2023-01-23T08:29:52.742Z,83.53
2023-01-23T08:30:44.218Z,83.37
2023-01-23T08:31:37.074Z,83.23
2023-01-23T08:32:28.894Z,83.39
2023-01-23T08:33:21.345Z,83.13
2023-01-23T08:34:12.859Z,83.00
2023-01-23T08:35:04.928Z,82.61
2023-01-23T08:35:58.588Z,82.82
2023-01-23T08:36:50.431Z,81.82
2023-01-23T08:37:42.393Z,81.94
2023-01-23T08:38:34.138Z,81.86
2023-01-23T08:39:25.690Z,82.03
2023-01-23T08:40:17.463Z,82.19
2023-01-23T08:41:11.683Z,81.83
2023-01-23T08:42:03.314Z,81.97
2023-01-23T08:42:57.239Z,81.83
2023-01-23T08:43:49.891Z,82.16
2023-01-23T08:44:41.419Z,82.11
2023-01-23T08:45:32.900Z,82.14
2023-01-23T08:46:24.538Z,81.91
2023-01-23T08:47:15.995Z,81.94
2023-01-23T08:48:09.192Z,81.64
2023-01-23T08:49:00.667Z,81.12
2023-01-23T08:49:52.197Z,80.78
2023-01-23T08:50:43.883Z,80.85
2023-01-23T08:51:35.520Z,80.89
2023-01-23T08:52:27.232Z,81.05
2023-01-23T08:53:18.704Z,81.25
2023-01-23T08:54:10.548Z,81.11
2023-01-23T08:55:02.152Z,81.31
2023-01-23T08:55:54.233Z,80.82
2023-01-23T08:56:45.847Z,80.45
2023-01-23T08:57:37.707Z,80.67
2023-01-23T08:58:29.440Z,80.80
2023-01-23T08:59:21.092Z,80.35
2023-01-23T09:00:13.206Z,80.45
2023-01-23T09:01:04.882Z,80.02
2023-01-23T09:01:56.451Z,80.31
2023-01-23T09:02:48.145Z,80.88
2023-01-23T09:03:39.994Z,80.51
2023-01-23T09:04:32.209Z,80.40
2023-01-23T09:05:23.667Z,80.04
2023-01-23T09:06:18.410Z,79.88
2023-01-23T09:07:09.924Z,79.92
2023-01-23T09:08:01.495Z,79.62
2023-01-23T09:08:53.032Z,79.43
2023-01-23T09:09:44.535Z,79.79
2023-01-23T09:10:36.394Z,80.08
2023-01-23T09:11:27.827Z,80.43
2023-01-23T09:12:19.716Z,79.72
2023-01-23T09:13:11.747Z,79.69
2023-01-23T09:14:03.189Z,78.70
2023-01-23T09:14:54.698Z,78.83
2023-01-23T09:15:46.154Z,79.30
2023-01-23T09:16:39.116Z,79.25
2023-01-23T09:17:30.624Z,79.03
2023-01-23T09:18:22.985Z,78.54
2023-01-23T09:19:15.708Z,78.62
2023-01-23T09:20:08.708Z,78.34
2023-01-23T09:21:00.349Z,77.99
2023-01-23T09:21:57.181Z,78.06
2023-01-23T09:22:48.654Z,78.30
2023-01-23T09:23:40.325Z,78.20
2023-01-23T09:24:31.812Z,78.26
2023-01-23T09:25:23.555Z,78.51
2023-01-23T09:26:15.605Z,78.14
2023-01-23T09:27:07.496Z,78.14
2023-01-23T09:27:59.162Z,78.01
2023-01-23T09:28:51.083Z,78.13
2023-01-23T09:29:42.770Z,78.03
2023-01-23T09:30:35.230Z,78.03
2023-01-23T09:31:26.765Z,77.99
2023-01-23T09:32:18.337Z,78.01
2023-01-23T09:33:10.015Z,77.50
2023-01-23T09:34:03.260Z,77.28
2023-01-23T09:34:55.157Z,77.17
2023-01-23T09:35:51.573Z,77.30
2023-01-23T09:36:43.799Z,77.25
2023-01-23T09:37:58.541Z,77.62
2023-01-23T09:38:50.683Z,77.26
2023-01-23T09:39:44.227Z,77.67
2023-01-23T09:40:44.853Z,77.30
2023-01-23T09:41:39.082Z,77.41
2023-01-23T09:42:34.620Z,77.58
2023-01-23T09:43:26.111Z,77.26
2023-01-23T09:44:35.894Z,77.51
2023-01-23T09:45:29.612Z,77.63
2023-01-23T09:46:39.354Z,77.26
2023-01-23T09:47:53.298Z,77.25
2023-01-23T09:48:46.737Z,77.46
2023-01-23T09:49:46.438Z,76.45
2023-01-23T09:50:52.295Z,76.66
2023-01-23T09:52:03.437Z,76.04
2023-01-23T09:53:11.998Z,76.15
2023-01-23T09:54:34.665Z,76.10
2023-01-23T09:55:57.954Z,76.96
2023-01-23T09:56:52.431Z,77.12
2023-01-23T09:57:55.210Z,77.43
2023-01-23T09:59:07.527Z,77.42
2023-01-23T10:00:13.720Z,76.83
2023-01-23T10:01:13.458Z,76.94
2023-01-23T10:02:20.066Z,77.06
2023-01-23T10:03:15.955Z,77.11
2023-01-23T10:04:11.945Z,77.50
2023-01-23T10:05:03.845Z,77.11
2023-01-23T10:06:16.629Z,77.20
2023-01-23T10:07:26.243Z,77.47
2023-01-23T10:08:42.798Z,76.93
2023-01-23T10:10:08.202Z,77.03
2023-01-23T10:11:10.720Z,76.75
2023-01-23T10:12:32.792Z,77.04
2023-01-23T10:13:59.393Z,76.63
2023-01-23T10:15:05.830Z,77.21
2023-01-23T10:16:12.621Z,76.58
2023-01-23T10:17:13.695Z,76.38
2023-01-23T10:18:32.781Z,75.13
2023-01-23T10:20:03.583Z,75.54
2023-01-23T10:20:55.186Z,75.17
2023-01-23T10:22:04.351Z,75.01
2023-01-23T10:23:07.537Z,74.83
2023-01-23T10:24:26.477Z,75.20
2023-01-23T10:25:24.289Z,75.48
2023-01-23T10:26:23.424Z,75.45
2023-01-23T10:27:20.328Z,74.96
2023-01-23T10:28:26.650Z,74.96
2023-01-23T10:29:44.996Z,74.82
2023-01-23T10:30:38.671Z,74.94
2023-01-23T10:31:48.426Z,73.28
2023-01-23T10:32:51.023Z,73.18
2023-01-23T10:33:56.386Z,73.49
2023-01-23T10:35:02.386Z,73.49
2023-01-23T10:36:04.578Z,74.01
2023-01-23T10:37:31.545Z,74.44
2023-01-23T10:38:35.372Z,74.64
2023-01-23T10:39:35.181Z,74.68
2023-01-23T10:40:46.927Z,74.96
2023-01-23T10:41:39.157Z,74.59
2023-01-23T10:42:30.798Z,74.46
2023-01-23T10:43:22.620Z,74.47
2023-01-23T10:44:19.955Z,74.63
2023-01-23T10:45:19.685Z,74.63
2023-01-23T10:46:18.059Z,74.12
2023-01-23T10:47:21.225Z,73.67
2023-01-23T10:48:45.615Z,73.08
2023-01-23T10:49:45.307Z,73.47
2023-01-23T10:50:39.453Z,73.54
2023-01-23T10:51:45.925Z,72.27
2023-01-23T10:52:46.037Z,72.11
2023-01-23T10:53:37.533Z,72.54
2023-01-23T10:54:32.656Z,72.86
2023-01-23T10:55:29.879Z,72.83
2023-01-23T10:56:21.771Z,73.19
2023-01-23T10:57:13.181Z,73.18
2023-01-23T10:58:06.884Z,71.97
2023-01-23T10:59:02.195Z,72.10
2023-01-23T11:00:20.353Z,71.85
2023-01-23T11:01:34.062Z,71.58
2023-01-23T11:02:34.880Z,71.56
2023-01-23T11:03:32.921Z,71.48
2023-01-23T11:04:28.377Z,72.41
2023-01-23T11:05:52.171Z,71.46
2023-01-23T11:06:45.294Z,71.93
2023-01-23T11:07:38.263Z,71.93
2023-01-23T11:08:38.528Z,72.45
2023-01-23T11:09:31.272Z,71.85
2023-01-23T11:10:23.632Z,72.06
2023-01-23T11:11:15.236Z,71.83
2023-01-23T11:12:14.494Z,71.57
2023-01-23T11:13:30.791Z,71.25
2023-01-23T11:14:24.200Z,70.99
2023-01-23T11:15:26.362Z,70.91
2023-01-23T11:16:22.917Z,70.60
2023-01-23T11:17:16.995Z,71.33
2023-01-23T11:18:32.519Z,71.30
2023-01-23T11:19:24.176Z,71.07
2023-01-23T11:20:37.113Z,71.24
2023-01-23T11:21:33.945Z,70.84
2023-01-23T11:22:39.076Z,71.24
2023-01-23T11:23:33.684Z,71.42
2023-01-23T11:24:38.616Z,70.93
2023-01-23T11:25:41.216Z,70.73
2023-01-23T11:26:35.201Z,71.37
2023-01-23T11:27:31.920Z,70.17
2023-01-23T11:28:36.355Z,70.62
2023-01-23T11:29:30.340Z,70.35
2023-01-23T11:30:39.505Z,70.18
2023-01-23T11:31:32.155Z,70.27
2023-01-23T11:32:25.139Z,70.67
2023-01-23T11:33:25.563Z,71.14
2023-01-23T11:34:24.548Z,70.20
2023-01-23T11:35:24.406Z,69.59
2023-01-23T11:36:19.425Z,70.02
2023-01-23T11:37:31.323Z,70.56
2023-01-23T11:38:30.844Z,69.12
2023-01-23T11:39:56.055Z,68.86
2023-01-23T11:40:48.099Z,68.79
2023-01-23T11:41:41.256Z,69.22
2023-01-23T11:42:40.227Z,69.80
2023-01-23T11:43:31.925Z,69.81
2023-01-23T11:44:24.548Z,69.45
2023-01-23T11:45:39.095Z,69.17
2023-01-23T11:46:52.658Z,68.62
2023-01-23T11:47:58.909Z,68.65
2023-01-23T11:49:02.702Z,68.56
2023-01-23T11:50:31.509Z,68.85
2023-01-23T11:51:35.326Z,67.35
2023-01-23T11:52:38.693Z,68.50
2023-01-23T11:54:00.477Z,68.36
2023-01-23T11:55:11.571Z,67.16
2023-01-23T11:56:57.487Z,67.31
2023-01-23T11:58:27.103Z,68.66